Airfield :
LOGIN :

Register | Disclaimer

   EN    FR    IT 

 










Legend :    VFR   Marginal VFR   IFR   Intensive IFR   Very Intensive IFR
Visi :
Ceiling :
>= 8 km
>= 3000ft
5 to 8 km
1000 to 3000 ft
1500m to 5 km
500 to 1000 ft
800 to 1500m
200 to 500 ft
< 800m
< 200 ft
Symbols :   Thunderstorms  Fog  Heavy snow  Heavy precipitations  Wind > 20 kt
SIGMETs :     Misc.  Thunderstorms  Icing  Turbulence  Mountain Waves  Volcanic Ashes






- Airport Elevation : 348 ft
- IATA code : STN


EGSS - London Stansted

CURRENT METAR :
  • 260320Z AUTO 19008KT 1900 BR BKN003 OVC006 06/06 Q1013

EXPIRED METARs :
  • 260250Z AUTO 17007KT 2400 BR SCT004 BKN009 OVC018 06/06 Q1013
  • 260220Z AUTO 16008KT 2200 BR FEW003 SCT011 OVC017 06/06 Q1013
  • 260150Z AUTO 15009KT 1800 BR BKN002 OVC020 06/06 Q1013
  • 260120Z AUTO 15008KT 1100 R22/P1500 BR OVC001 06/06 Q1013
  • 260050Z AUTO 16008KT 0750 R22/P1500 FG OVC001 05/05 Q1014

TAF AMD TAF EGSS
Valid from the 26 at 02:00 until the 27 at 06:00 UTC


260227Z 2602/2706 18006KT 2000 BR BKN001
TEMPO 2602/2607 5000 BKN011
PROB40
TEMPO 2602/2607 0300 FG
BECMG 2607/2610 9999 NSW FEW007 SCT012
TEMPO 2610/2613 8000 BKN012
BECMG 2613/2616 BKN010
TEMPO 2614/2620 7000 RA BKN006
TEMPO 2620/2702 8000 BKN007
PROB30
TEMPO 2620/2702 3000 BR BKN003
BECMG 2702/2705 SCT017
ATIS : +44 1279 669 325



MET'MAP, your aeronautical weather chart ! - Copyright ORBIFLY December 2007 - Disclaimer

ORBIFLY MET'MAP TEAM :

Programming & Development : Alexandra Zaïnal
Concept & original design : Baudouin d'Aumeries
Assistance for programming : Marc-Olivier Méhu
Technical & hardware support : Manuel Goepfert

Contact : metmap@orbifly.com




SOURCES & CREDITS :

   NOAA